Time;durP1;ratioP1;P1;durP2;ratioP2;P2;SDS_P1;SDS_P2;PMS_P1;PMS_P2;Temp;Humidity;BMP_temperature;BMP_pressure;BME280_temperature;BME280_humidity;BME280_pressure;Samples;Min_cycle;Max_cycle;Signal;HPM_P1;HPM_P2
2022/07/21 00:01:12;;;;;;;6.33;5.73;;;;;;;22.99;82.97;96554.88;5072024;28;20456;-74
2022/07/21 00:03:39;;;;;;;6.70;5.30;;;;;;;23.11;81.42;96529.31;5064366;28;20462;-74
2022/07/21 00:06:06;;;;;;;7.27;5.50;;;;;;;23.28;80.15;96549.91;5090176;28;20840;-74
2022/07/21 00:08:33;;;;;;;5.83;5.10;;;;;;;23.36;80.22;96553.28;5055885;28;20479;-74
2022/07/21 00:11:00;;;;;;;4.80;4.30;;;;;;;23.17;81.15;96551.19;5085891;28;20431;-74
2022/07/21 00:13:27;;;;;;;6.00;5.50;;;;;;;23.20;81.26;96559.25;5082822;28;20437;-74
2022/07/21 00:15:54;;;;;;;4.97;4.50;;;;;;;23.27;80.52;96566.50;5094128;28;20436;-74
2022/07/21 00:18:21;;;;;;;6.30;5.80;;;;;;;22.95;82.51;96572.22;5074324;28;20452;-73
2022/07/21 00:20:49;;;;;;;5.30;3.87;;;;;;;22.76;82.45;96560.06;5074758;28;20448;-74
2022/07/21 00:23:17;;;;;;;5.33;4.83;;;;;;;23.10;80.87;96560.13;5096151;28;20440;-73
2022/07/21 00:25:43;;;;;;;5.20;4.80;;;;;;;23.32;80.63;96611.16;5059718;28;20473;-73
2022/07/21 00:28:10;;;;;;;5.70;5.17;;;;;;;22.97;81.59;96586.88;5051713;28;20564;-73
2022/07/21 00:30:37;;;;;;;6.73;4.80;;;;;;;23.10;79.93;96589.81;5051745;28;21251;-73
2022/07/21 00:33:03;;;;;;;5.10;4.70;;;;;;;23.16;80.67;96623.28;5075114;28;20462;-73
2022/07/21 00:35:31;;;;;;;5.10;4.70;;;;;;;23.11;80.32;96610.25;5087247;28;20429;-74
2022/07/21 00:37:58;;;;;;;6.00;5.17;;;;;;;22.97;81.46;96603.06;5088378;28;20543;-74
2022/07/21 00:40:25;;;;;;;5.27;4.87;;;;;;;22.88;82.83;96613.53;5071347;28;20445;-74
2022/07/21 00:42:51;;;;;;;6.50;5.90;;;;;;;23.16;82.77;96627.91;5076897;28;20892;-74
2022/07/21 00:45:18;;;;;;;6.20;5.60;;;;;;;23.21;83.24;96640.97;5068025;28;20448;-74
2022/07/21 00:47:45;;;;;;;5.93;5.23;;;;;;;22.47;84.31;96554.19;5075329;28;20489;-74
2022/07/21 00:50:15;;;;;;;7.30;6.70;;;;;;;22.90;84.92;96613.13;5087385;28;20954;-74
2022/07/21 00:52:42;;;;;;;6.00;5.50;;;;;;;22.66;87.91;96623.69;5071087;28;20457;-74
2022/07/21 00:55:13;;;;;;;7.10;6.50;;;;;;;22.99;86.42;96618.84;5071270;28;20416;-74
2022/07/21 00:57:40;;;;;;;6.13;5.47;;;;;;;22.85;87.55;96613.56;5070893;28;20482;-74
2022/07/21 01:00:11;;;;;;;6.10;5.60;;;;;;;22.53;89.74;96601.09;5074318;28;20500;-74
2022/07/21 01:02:38;;;;;;;6.40;5.83;;;;;;;22.62;90.46;96608.72;5091245;28;20482;-74
2022/07/21 01:05:12;;;;;;;7.90;5.93;;;;;;;22.55;88.90;96569.09;5092440;28;20469;-74
2022/07/21 01:07:43;;;;;;;8.00;6.90;;;;;;;22.65;90.47;96595.22;5077423;28;20435;-74
2022/07/21 01:10:12;;;;;;;6.53;5.93;;;;;;;22.46;92.68;96605.78;5091211;28;20428;-74
2022/07/21 01:12:39;;;;;;;7.23;6.53;;;;;;;22.26;93.58;96575.91;5088300;28;20444;-74
2022/07/21 01:15:08;;;;;;;8.53;7.50;;;;;;;22.42;93.47;96598.47;5078237;28;20885;-74
2022/07/21 01:17:35;;;;;;;6.50;5.90;;;;;;;22.20;94.21;96572.09;5053803;28;20436;-74
2022/07/21 01:20:05;;;;;;;6.97;6.37;;;;;;;22.49;93.84;96610.38;5054351;28;20472;-74
2022/07/21 01:22:37;;;;;;;7.90;6.00;;;;;;;22.11;98.07;96604.84;5088096;28;20464;-74
2022/07/21 01:25:05;;;;;;;10.47;6.57;;;;;;;21.84;100.00;96575.75;5074131;28;20892;-74
2022/07/21 01:27:32;;;;;;;8.03;7.33;;;;;;;22.16;99.60;96609.06;5092157;28;20423;-74
2022/07/21 01:30:00;;;;;;;6.10;5.70;;;;;;;22.54;96.22;96612.63;5078948;28;20516;-74
2022/07/21 01:32:26;;;;;;;7.07;6.47;;;;;;;21.74;100.00;96567.72;5075858;28;20432;-74
2022/07/21 01:34:53;;;;;;;7.47;6.73;;;;;;;22.11;100.00;96608.31;5061882;28;20425;-74
2022/07/21 01:37:27;;;;;;;6.60;6.00;;;;;;;22.35;98.72;96614.72;5059461;28;20439;-74
2022/07/21 01:42:40;;;;;;;6.67;6.17;;;;;;;22.08;99.16;96595.66;5090860;28;20455;-75
2022/07/21 01:45:08;;;;;;;7.50;6.90;;;;;;;21.91;100.00;96576.88;5073807;28;20437;-74
2022/07/21 01:47:35;;;;;;;7.53;6.80;;;;;;;21.85;100.00;96549.59;5070024;28;20527;-74
2022/07/21 01:50:02;;;;;;;7.83;6.07;;;;;;;21.94;100.00;96558.00;5071541;28;20429;-74
2022/07/21 01:52:29;;;;;;;10.30;7.10;;;;;;;21.92;100.00;96546.88;5053700;28;21010;-74
2022/07/21 01:54:55;;;;;;;7.40;6.70;;;;;;;21.69;100.00;96550.06;5074513;28;20864;-74
2022/07/21 01:57:22;;;;;;;6.73;6.23;;;;;;;21.32;100.00;96521.03;5080605;28;20432;-74
2022/07/21 01:59:49;;;;;;;7.20;6.50;;;;;;;21.63;100.00;96543.56;5052595;28;20457;-74
2022/07/21 02:02:20;;;;;;;6.90;6.30;;;;;;;21.68;100.00;96500.09;5050677;28;20575;-74
2022/07/21 02:04:48;;;;;;;7.30;6.23;;;;;;;21.54;100.00;96487.50;5064246;28;20461;-74
2022/07/21 02:07:16;;;;;;;11.60;6.93;;;;;;;21.62;100.00;96503.56;5086163;28;20446;-74
2022/07/21 02:09:43;;;;;;;8.97;6.67;;;;;;;21.76;100.00;96506.94;5087919;28;20484;-73
2022/07/21 02:12:09;;;;;;;8.90;6.40;;;;;;;22.04;100.00;96527.56;5102706;28;20454;-74
2022/07/21 02:14:36;;;;;;;8.27;7.47;;;;;;;22.15;100.00;96514.00;5110918;28;20428;-74
2022/07/21 02:17:03;;;;;;;7.40;6.70;;;;;;;22.52;99.62;96534.09;5095716;28;20439;-73
2022/07/21 02:19:30;;;;;;;7.10;6.40;;;;;;;22.38;99.31;96511.50;5073402;28;20453;-73
2022/07/21 02:21:57;;;;;;;6.70;6.07;;;;;;;22.12;100.00;96498.66;5090502;28;20424;-73
2022/07/21 02:24:23;;;;;;;8.93;6.90;;;;;;;22.08;100.00;96473.69;5056655;28;20483;-73
2022/07/21 02:26:50;;;;;;;7.27;6.57;;;;;;;22.02;100.00;96475.22;5088943;28;20423;-73
2022/07/21 02:29:17;;;;;;;10.60;6.73;;;;;;;21.31;100.00;96449.56;5094278;28;20523;-74
2022/07/21 02:31:43;;;;;;;7.27;6.57;;;;;;;21.33;100.00;96444.56;5080621;28;20432;-73
2022/07/21 02:34:10;;;;;;;7.63;6.90;;;;;;;21.38;100.00;96443.38;5080652;28;20443;-73
2022/07/21 02:36:37;;;;;;;7.03;6.33;;;;;;;21.13;100.00;96411.22;5094261;28;20511;-73
2022/07/21 02:39:03;;;;;;;8.20;6.97;;;;;;;21.81;100.00;96466.16;5094133;28;20452;-73
2022/07/21 02:41:30;;;;;;;7.87;6.67;;;;;;;21.84;100.00;96462.66;5077069;28;20522;-73
2022/07/21 02:43:57;;;;;;;6.90;6.40;;;;;;;21.87;100.00;96487.28;5095198;28;21173;-74
2022/07/21 02:46:23;;;;;;;7.67;6.33;;;;;;;21.31;100.00;96468.41;5093868;28;20427;-74
2022/07/21 02:48:50;;;;;;;7.53;6.83;;;;;;;21.41;100.00;96496.41;5093699;28;20444;-74
2022/07/21 02:51:17;;;;;;;7.43;6.73;;;;;;;21.72;100.00;96500.06;5062392;28;20505;-74
2022/07/21 02:53:44;;;;;;;7.07;6.40;;;;;;;21.69;100.00;96490.84;5073502;28;20952;-74
2022/07/21 02:56:10;;;;;;;8.73;7.00;;;;;;;21.86;100.00;96518.81;5056347;28;20500;-74
2022/07/21 02:58:37;;;;;;;7.33;6.70;;;;;;;21.58;100.00;96514.38;5093552;28;20498;-74
2022/07/21 03:01:06;;;;;;;7.23;6.33;;;;;;;21.47;100.00;96510.97;5058435;28;20438;-74
2022/07/21 03:03:35;;;;;;;8.60;6.50;;;;;;;21.32;100.00;96514.88;5081838;28;20546;-74
2022/07/21 03:06:03;;;;;;;7.80;7.17;;;;;;;21.22;100.00;96521.81;5061870;28;20441;-74
2022/07/21 03:08:30;;;;;;;8.23;6.33;;;;;;;21.03;100.00;96516.91;5093407;28;20447;-74
2022/07/21 03:10:57;;;;;;;6.37;5.77;;;;;;;21.02;100.00;96497.31;5077413;28;20531;-74
2022/07/21 03:13:24;;;;;;;7.33;6.60;;;;;;;21.20;100.00;96524.91;5082940;28;21170;-73
2022/07/21 03:15:51;;;;;;;7.60;6.80;;;;;;;21.36;100.00;96499.50;5062854;28;20553;-74
2022/07/21 03:18:17;;;;;;;7.83;6.60;;;;;;;21.37;100.00;96491.06;5092074;28;20546;-74
2022/07/21 03:20:45;;;;;;;10.13;6.70;;;;;;;21.66;100.00;96525.88;5072827;28;20423;-74
2022/07/21 03:23:12;;;;;;;6.17;5.70;;;;;;;21.81;100.00;96530.00;5071826;28;20498;-74
2022/07/21 03:25:39;;;;;;;7.60;6.77;;;;;;;21.89;100.00;96536.09;5074981;28;20443;-74
2022/07/21 03:28:06;;;;;;;6.00;5.50;;;;;;;21.73;100.00;96517.75;5091818;28;20837;-74
2022/07/21 03:30:34;;;;;;;7.30;6.60;;;;;;;21.92;100.00;96544.19;5075149;28;20527;-74
2022/07/21 03:33:01;;;;;;;7.10;6.40;;;;;;;21.49;100.00;96546.31;5091951;28;20951;-74
2022/07/21 03:35:28;;;;;;;7.33;6.80;;;;;;;21.23;100.00;96524.13;5092807;28;20958;-74
2022/07/21 03:37:57;;;;;;;7.10;6.30;;;;;;;21.30;100.00;96531.44;5064890;28;21015;-74
2022/07/21 03:40:26;;;;;;;7.43;6.73;;;;;;;20.98;100.00;96549.56;5057997;28;20440;-74
2022/07/21 03:42:55;;;;;;;7.87;7.10;;;;;;;20.88;100.00;96546.53;5065995;28;20435;-74
2022/07/21 03:45:23;;;;;;;8.87;7.50;;;;;;;21.21;100.00;96558.69;5106451;28;20416;-74
2022/07/21 03:47:50;;;;;;;7.93;7.00;;;;;;;21.39;100.00;96574.06;5116467;28;20439;-73
2022/07/21 03:50:17;;;;;;;7.73;7.13;;;;;;;21.55;100.00;96577.06;5116346;28;20436;-73
2022/07/21 03:52:45;;;;;;;8.17;7.53;;;;;;;21.60;100.00;96578.56;5100398;28;20416;-75
2022/07/21 03:55:14;;;;;;;9.50;7.73;;;;;;;21.70;100.00;96588.53;5093020;28;20834;-74
2022/07/21 03:57:46;;;;;;;9.63;8.63;;;;;;;21.27;100.00;96559.09;5078578;28;20916;-74
2022/07/21 04:00:19;;;;;;;9.40;8.40;;;;;;;21.32;100.00;96582.16;5072618;28;20397;-74
2022/07/21 04:02:46;;;;;;;8.07;7.37;;;;;;;21.23;100.00;96591.38;5056501;28;20417;-74
2022/07/21 04:05:14;;;;;;;8.87;7.87;;;;;;;21.14;100.00;96603.69;5091151;28;20463;-74
2022/07/21 04:07:42;;;;;;;8.90;8.00;;;;;;;20.94;100.00;96576.44;5088706;28;20420;-74
2022/07/21 04:10:11;;;;;;;9.27;8.30;;;;;;;20.98;100.00;96608.72;5080605;28;20432;-74
2022/07/21 04:12:38;;;;;;;9.60;8.80;;;;;;;20.95;100.00;96624.44;5074156;28;20478;-74
2022/07/21 04:15:07;;;;;;;9.85;8.93;;;;;;;20.98;100.00;96627.53;5030503;28;1151424;-74
2022/07/21 04:17:34;;;;;;;10.93;9.83;;;;;;;21.23;100.00;96626.34;5089097;28;20243;-74
2022/07/21 04:20:02;;;;;;;12.23;10.33;;;;;;;21.43;100.00;96650.91;5091979;28;20523;-74
2022/07/21 04:22:29;;;;;;;11.70;10.60;;;;;;;21.27;100.00;96634.44;5074233;28;20487;-74
2022/07/21 04:24:56;;;;;;;11.77;10.53;;;;;;;21.20;100.00;96621.72;5083868;28;20876;-74
2022/07/21 04:27:22;;;;;;;11.63;9.47;;;;;;;21.14;100.00;96642.09;5078447;28;20435;-74
2022/07/21 04:29:49;;;;;;;14.00;10.50;;;;;;;20.78;100.00;96638.69;5092154;28;20505;-74
2022/07/21 04:32:16;;;;;;;12.07;10.90;;;;;;;20.75;100.00;96665.56;5092166;28;20478;-74
2022/07/21 04:34:42;;;;;;;13.90;12.23;;;;;;;20.93;100.00;96650.97;5080824;28;20982;-74
2022/07/21 04:37:09;;;;;;;18.60;13.10;;;;;;;20.70;100.00;96660.56;5077712;28;21004;-74
2022/07/21 04:39:36;;;;;;;20.63;13.60;;;;;;;20.98;100.00;96670.56;5093038;28;20439;-74
2022/07/21 04:42:03;;;;;;;16.93;12.07;;;;;;;21.10;100.00;96657.50;5088166;28;20486;-74
2022/07/21 04:44:30;;;;;;;17.37;13.10;;;;;;;20.95;100.00;96659.41;5082970;28;20532;-74
2022/07/21 04:46:57;;;;;;;16.70;12.37;;;;;;;20.78;100.00;96662.88;5090702;28;20865;-74
2022/07/21 04:49:24;;;;;;;20.33;14.07;;;;;;;20.91;100.00;96672.09;5074799;28;20839;-74
2022/07/21 04:51:51;;;;;;;17.30;15.37;;;;;;;21.07;100.00;96671.69;5072234;28;20518;-73
2022/07/21 04:54:17;;;;;;;30.47;17.67;;;;;;;20.99;100.00;96670.19;5066450;28;20440;-73
2022/07/21 04:56:44;;;;;;;26.80;18.20;;;;;;;20.54;100.00;96621.41;5072245;28;20486;-73
2022/07/21 04:59:12;;;;;;;27.17;19.53;;;;;;;20.81;100.00;96670.16;5087891;28;20449;-73
2022/07/21 05:01:39;;;;;;;32.77;19.03;;;;;;;20.93;100.00;96691.28;5078281;28;20862;-74
2022/07/21 05:04:06;;;;;;;29.83;18.40;;;;;;;20.70;100.00;96672.09;5061900;28;20851;-73
2022/07/21 05:06:33;;;;;;;22.77;16.10;;;;;;;20.78;100.00;96686.31;5084418;28;20467;-73
2022/07/21 05:09:00;;;;;;;26.40;16.60;;;;;;;20.98;100.00;96689.38;5085009;28;20467;-73
2022/07/21 05:11:27;;;;;;;21.50;14.60;;;;;;;21.07;100.00;96697.81;5071132;28;20901;-73
2022/07/21 05:13:53;;;;;;;19.37;12.90;;;;;;;21.20;100.00;96678.19;5087764;28;20451;-73
2022/07/21 05:16:21;;;;;;;12.57;10.20;;;;;;;21.41;100.00;96692.81;5086170;28;20447;-73
2022/07/21 05:18:48;;;;;;;14.77;9.63;;;;;;;21.67;100.00;96708.50;5085500;28;20517;-73
2022/07/21 05:21:15;;;;;;;9.97;8.80;;;;;;;21.11;100.00;96685.91;5063679;28;20820;-73
2022/07/21 05:23:42;;;;;;;9.00;8.10;;;;;;;20.84;100.00;96684.78;5064619;28;20490;-73
2022/07/21 05:26:08;;;;;;;8.80;7.90;;;;;;;20.92;100.00;96713.94;5054009;28;20959;-72
2022/07/21 05:28:35;;;;;;;9.20;7.83;;;;;;;20.86;100.00;96710.13;5070515;28;20483;-72
2022/07/21 05:31:02;;;;;;;9.17;8.30;;;;;;;20.84;100.00;96701.69;5079336;28;20842;-72
2022/07/21 05:33:29;;;;;;;8.60;7.80;;;;;;;20.45;100.00;96674.78;5073775;28;20435;-72
2022/07/21 05:35:55;;;;;;;8.63;7.90;;;;;;;20.98;100.00;96703.59;5090667;28;20488;-72
2022/07/21 05:38:22;;;;;;;8.57;7.77;;;;;;;20.76;100.00;96651.75;5090442;28;20520;-72
2022/07/21 05:40:54;;;;;;;8.33;7.53;;;;;;;20.85;100.00;96697.06;5092278;28;20416;-72
2022/07/21 05:43:20;;;;;;;8.30;7.60;;;;;;;20.92;100.00;96722.03;5090164;28;20488;-72
2022/07/21 05:45:47;;;;;;;7.53;6.70;;;;;;;20.99;100.00;96723.19;5091501;28;20562;-72
2022/07/21 05:48:15;;;;;;;7.70;7.00;;;;;;;21.01;100.00;96716.25;5057661;28;20452;-72
2022/07/21 05:50:41;;;;;;;9.50;7.80;;;;;;;20.91;100.00;96701.66;5081224;28;20484;-72
2022/07/21 05:53:08;;;;;;;9.10;8.00;;;;;;;21.20;100.00;96715.84;5085440;28;20436;-72
2022/07/21 05:55:35;;;;;;;8.60;7.90;;;;;;;21.15;100.00;96720.88;5053530;28;20435;-72
2022/07/21 05:58:02;;;;;;;8.47;7.50;;;;;;;20.86;100.00;96706.66;5069861;28;20483;-72
2022/07/21 06:00:37;;;;;;;8.77;7.80;;;;;;;20.65;100.00;96707.41;5071466;28;20430;-72
2022/07/21 06:03:03;;;;;;;8.70;6.90;;;;;;;20.69;100.00;96691.28;5071346;28;20432;-74
2022/07/21 06:05:38;;;;;;;7.17;6.57;;;;;;;20.71;100.00;96697.81;5070203;28;20460;-73
2022/07/21 06:08:04;;;;;;;8.17;7.37;;;;;;;20.99;100.00;96712.44;5069985;28;20456;-73
2022/07/21 06:10:31;;;;;;;8.50;6.50;;;;;;;21.21;100.00;96736.22;5053549;28;20432;-73
2022/07/21 06:12:59;;;;;;;14.43;8.37;;;;;;;21.21;100.00;96727.38;5070014;28;20520;-73
2022/07/21 06:15:26;;;;;;;7.93;7.23;;;;;;;21.05;100.00;96732.38;5069846;28;20452;-73
2022/07/21 06:17:53;;;;;;;15.83;8.03;;;;;;;20.88;100.00;96702.44;5069861;28;20459;-73
2022/07/21 06:20:21;;;;;;;14.60;7.00;;;;;;;21.19;100.00;96778.88;5052666;28;20440;-74
2022/07/21 06:22:48;;;;;;;8.00;7.30;;;;;;;20.92;100.00;96783.09;5071383;28;20838;-74
2022/07/21 06:25:15;;;;;;;8.73;7.20;;;;;;;20.91;100.00;96778.84;5069932;28;20488;-74
2022/07/21 06:27:42;;;;;;;8.37;7.77;;;;;;;20.74;100.00;96755.41;5069995;28;20808;-74
2022/07/21 06:30:09;;;;;;;8.10;7.40;;;;;;;21.07;100.00;96792.69;5056754;28;20437;-73
2022/07/21 06:32:36;;;;;;;10.40;8.90;;;;;;;21.07;100.00;96784.63;5083505;28;20465;-74
2022/07/21 06:35:04;;;;;;;9.77;8.43;;;;;;;20.99;100.00;96772.34;5098850;28;20440;-73
2022/07/21 06:37:31;;;;;;;8.80;8.00;;;;;;;20.51;100.00;96716.22;5082011;28;20443;-73
2022/07/21 06:39:57;;;;;;;11.80;8.67;;;;;;;20.96;100.00;96778.47;5095397;28;20441;-73
2022/07/21 06:42:24;;;;;;;10.70;9.03;;;;;;;20.84;100.00;96778.88;5095688;28;20443;-73
2022/07/21 06:44:51;;;;;;;10.70;9.27;;;;;;;20.59;100.00;96793.00;5077478;28;20487;-74
2022/07/21 06:47:19;;;;;;;9.77;8.77;;;;;;;20.47;100.00;96788.00;5079387;28;20512;-74
2022/07/21 06:49:46;;;;;;;10.53;8.73;;;;;;;20.39;100.00;96770.25;5075842;28;20440;-74
2022/07/21 06:52:13;;;;;;;9.63;8.83;;;;;;;20.23;100.00;96738.38;5069728;28;20482;-73
2022/07/21 06:54:40;;;;;;;10.37;9.47;;;;;;;20.44;100.00;96769.94;5070879;28;20479;-73
2022/07/21 06:57:07;;;;;;;11.80;9.10;;;;;;;19.97;100.00;96752.84;5069840;28;20455;-74
2022/07/21 06:59:33;;;;;;;11.97;10.53;;;;;;;20.25;100.00;96751.41;5069588;28;20499;-73
2022/07/21 07:02:00;;;;;;;13.07;10.00;;;;;;;20.21;100.00;96762.16;5069443;28;20497;-73
2022/07/21 07:04:28;;;;;;;11.60;10.40;;;;;;;19.94;100.00;96763.56;5086077;28;20809;-73
2022/07/21 07:06:55;;;;;;;11.20;10.20;;;;;;;19.80;100.00;96739.34;5070770;28;20439;-72
2022/07/21 07:09:23;;;;;;;10.73;9.70;;;;;;;20.29;100.00;96789.78;5087387;28;20480;-72
2022/07/21 07:11:52;;;;;;;11.17;10.27;;;;;;;20.46;100.00;96799.88;5073088;28;20975;-72
2022/07/21 07:14:39;;;;;;;11.07;10.23;;;;;;;20.41;100.00;96804.81;5072812;28;20456;-72
2022/07/21 07:17:05;;;;;;;12.10;10.47;;;;;;;20.24;100.00;96787.47;5073188;28;20459;-72
2022/07/21 07:19:32;;;;;;;14.97;10.60;;;;;;;20.33;100.00;96820.16;5074230;28;20547;-72
2022/07/21 07:21:59;;;;;;;11.63;10.60;;;;;;;20.25;100.00;96822.00;5073060;28;20436;-72
2022/07/21 07:24:26;;;;;;;10.80;9.80;;;;;;;20.12;100.00;96809.28;5073006;28;20495;-72
2022/07/21 07:26:53;;;;;;;15.70;10.20;;;;;;;20.03;100.00;96806.94;5056654;28;20470;-72
2022/07/21 07:29:19;;;;;;;11.30;10.20;;;;;;;19.41;100.00;96761.31;5074022;28;20509;-72
2022/07/21 07:31:46;;;;;;;10.67;9.57;;;;;;;19.53;100.00;96798.56;5056125;28;20444;-72
2022/07/21 07:34:13;;;;;;;11.90;10.70;;;;;;;19.63;100.00;96797.91;5056277;28;20447;-72
2022/07/21 07:36:40;;;;;;;11.90;10.70;;;;;;;19.63;100.00;96786.38;5072462;28;20448;-72
2022/07/21 07:39:11;;;;;;;12.50;11.50;;;;;;;19.85;100.00;96798.78;5089229;28;20448;-72
2022/07/21 07:41:38;;;;;;;11.67;10.57;;;;;;;19.86;100.00;96811.06;5072244;28;20429;-72
2022/07/21 07:44:05;;;;;;;11.30;10.20;;;;;;;19.70;100.00;96775.69;5072151;28;20967;-72
2022/07/21 07:46:31;;;;;;;12.87;11.57;;;;;;;19.63;100.00;96794.44;5072141;28;20854;-72
2022/07/21 07:48:59;;;;;;;11.90;10.80;;;;;;;19.27;100.00;96745.88;5072443;28;20901;-73
2022/07/21 07:51:37;;;;;;;11.60;10.47;;;;;;;19.34;100.00;96783.47;5073224;28;21098;-73
2022/07/21 07:54:04;;;;;;;14.33;12.23;;;;;;;19.78;100.00;96782.66;5070460;28;20527;-73
2022/07/21 07:56:31;;;;;;;11.93;10.93;;;;;;;19.95;100.00;96781.22;5072404;28;20940;-73
2022/07/21 07:58:58;;;;;;;12.23;11.23;;;;;;;19.53;100.00;96776.34;5072586;28;20447;-72
2022/07/21 08:01:25;;;;;;;11.57;10.50;;;;;;;19.42;100.00;96777.03;5077033;28;20443;-72
2022/07/21 08:03:52;;;;;;;12.13;10.97;;;;;;;19.37;100.00;96763.97;5100649;28;20459;-72
2022/07/21 08:06:19;;;;;;;12.17;11.17;;;;;;;19.65;100.00;96755.38;5111819;28;20432;-72
2022/07/21 08:08:46;;;;;;;13.87;11.87;;;;;;;19.88;100.00;96783.84;5116262;28;20443;-72
2022/07/21 08:11:14;;;;;;;12.53;11.43;;;;;;;19.84;100.00;96777.69;5094210;28;20479;-72
2022/07/21 08:13:41;;;;;;;12.20;11.10;;;;;;;19.87;100.00;96814.53;5080694;28;20464;-72
2022/07/21 08:16:08;;;;;;;12.20;11.20;;;;;;;19.68;100.00;96812.88;5088744;28;20448;-72
2022/07/21 08:18:35;;;;;;;12.03;11.03;;;;;;;19.64;100.00;96823.59;5073286;28;20503;-72
2022/07/21 08:21:01;;;;;;;12.63;11.57;;;;;;;19.65;100.00;96814.41;5070771;28;20527;-72
2022/07/21 08:23:28;;;;;;;12.10;11.10;;;;;;;19.86;100.00;96819.13;5072135;28;20478;-72
2022/07/21 08:25:55;;;;;;;12.03;11.13;;;;;;;19.82;100.00;96812.19;5072237;28;20453;-72
2022/07/21 08:28:22;;;;;;;12.77;11.77;;;;;;;20.07;100.00;96832.69;5076878;28;20457;-73
2022/07/21 08:30:49;;;;;;;13.23;12.17;;;;;;;20.03;100.00;96818.47;5071910;28;20835;-73
2022/07/21 08:33:15;;;;;;;13.67;12.17;;;;;;;20.36;100.00;96838.19;5071852;28;20468;-73
2022/07/21 08:35:42;;;;;;;13.07;11.90;;;;;;;20.13;100.00;96835.75;5088297;28;20455;-73
2022/07/21 08:38:13;;;;;;;13.60;12.50;;;;;;;20.20;100.00;96840.41;5072919;28;20548;-73
2022/07/21 08:40:43;;;;;;;13.73;12.47;;;;;;;19.85;100.00;96798.03;5065274;28;21014;-73
2022/07/21 08:43:12;;;;;;;14.20;13.10;;;;;;;;;;5052540;28;20495;-73
2022/07/21 08:45:39;;;;;;;13.30;12.00;;;;;;;20.04;100.00;96833.44;5092303;28;20456;-73
2022/07/21 08:48:07;;;;;;;13.00;11.70;;;;;;;20.14;100.00;96840.00;5091955;28;20492;-73
2022/07/21 08:50:37;;;;;;;14.40;13.10;;;;;;;20.06;100.00;96843.78;5079809;28;20431;-72
2022/07/21 08:53:04;;;;;;;14.50;13.13;;;;;;;20.11;100.00;96835.38;5086375;28;20925;-73
2022/07/21 08:55:32;;;;;;;15.70;14.40;;;;;;;20.15;100.00;96836.16;5087966;28;20429;-73
2022/07/21 08:58:00;;;;;;;15.27;13.70;;;;;;;20.26;100.00;96822.78;5057723;28;20508;-73
2022/07/21 09:00:34;;;;;;;15.93;14.47;;;;;;;20.30;100.00;96818.97;5071238;28;20494;-73
2022/07/21 09:03:08;;;;;;;16.67;15.37;;;;;;;20.36;100.00;96847.00;5084731;28;20780;-73
2022/07/21 09:05:35;;;;;;;16.67;15.17;;;;;;;20.00;100.00;96791.59;5079221;28;20457;-73
2022/07/21 09:08:02;;;;;;;16.13;14.73;;;;;;;20.18;100.00;96842.72;5070980;28;20468;-73
2022/07/21 09:10:30;;;;;;;16.53;14.90;;;;;;;20.13;100.00;96841.13;5070945;28;20468;-73
2022/07/21 09:13:06;;;;;;;18.10;16.30;;;;;;;20.28;100.00;96840.06;5072447;28;20490;-73
2022/07/21 09:15:34;;;;;;;16.00;14.70;;;;;;;20.30;100.00;96835.09;5085454;28;20447;-73
2022/07/21 09:18:14;;;;;;;16.40;14.90;;;;;;;20.48;100.00;96839.81;5074324;28;20483;-73
2022/07/21 09:20:53;;;;;;;16.37;14.90;;;;;;;20.65;100.00;96839.84;5076085;28;20420;-73
2022/07/21 09:23:22;;;;;;;17.83;16.17;;;;;;;20.53;100.00;96831.38;5088075;28;20474;-73
2022/07/21 09:25:55;;;;;;;17.73;15.97;;;;;;;20.42;100.00;96817.13;5070287;28;21042;-73
2022/07/21 09:28:29;;;;;;;20.13;18.30;;;;;;;20.33;100.00;96838.94;5073971;28;20998;-73
2022/07/21 09:31:03;;;;;;;19.70;17.80;;;;;;;20.13;100.00;96841.13;5077304;28;20439;-73
2022/07/21 09:33:34;;;;;;;21.27;19.00;;;;;;;20.00;100.00;96821.88;5081894;28;20438;-73
2022/07/21 09:36:03;;;;;;;19.50;17.90;;;;;;;20.11;100.00;96829.22;5075882;28;20421;-72
2022/07/21 09:38:34;;;;;;;19.97;18.20;;;;;;;19.98;100.00;96834.16;5095566;28;20899;-73
2022/07/21 09:41:14;;;;;;;20.13;18.03;;;;;;;20.04;100.00;96829.97;5082295;28;20443;-73
2022/07/21 09:43:47;;;;;;;18.07;16.37;;;;;;;20.11;100.00;96834.59;5077719;28;20439;-73
2022/07/21 09:46:28;;;;;;;19.30;17.60;;;;;;;20.03;100.00;96810.41;5071084;28;20448;-73
2022/07/21 09:49:00;;;;;;;20.10;18.30;;;;;;;20.08;100.00;96802.00;5059108;28;20452;-73
2022/07/21 09:51:46;;;;;;;20.47;18.27;;;;;;;20.34;100.00;96837.78;5070361;28;20429;-73
2022/07/21 09:54:14;;;;;;;19.00;17.30;;;;;;;20.48;100.00;96845.19;5054034;28;20436;-73
2022/07/21 09:56:43;;;;;;;18.67;16.97;;;;;;;20.40;100.00;96840.88;5075975;28;20904;-73
2022/07/21 09:59:14;;;;;;;19.30;17.60;;;;;;;20.18;100.00;96799.75;5073782;28;20490;-73
2022/07/21 10:01:41;;;;;;;20.00;18.00;;;;;;;20.49;100.00;96834.03;5057007;28;20486;-73
2022/07/21 10:04:08;;;;;;;21.10;18.87;;;;;;;20.39;100.00;96834.75;5070415;28;21003;-73
2022/07/21 10:06:38;;;;;;;21.53;19.23;;;;;;;20.20;100.00;96824.31;5071214;28;20454;-73
2022/07/21 10:09:12;;;;;;;21.00;19.10;;;;;;;20.39;100.00;96832.06;5085852;28;20444;-73
2022/07/21 10:11:41;;;;;;;23.37;21.17;;;;;;;20.34;100.00;96810.94;5073505;28;20436;-73
2022/07/21 10:14:12;;;;;;;21.30;19.30;;;;;;;20.56;100.00;96852.09;5057571;28;20458;-73
2022/07/21 10:16:39;;;;;;;22.03;20.13;;;;;;;20.62;100.00;96843.31;5059746;28;20491;-73
2022/07/21 10:19:25;;;;;;;20.80;19.10;;;;;;;20.56;100.00;96844.81;5086925;28;20443;-73
2022/07/21 10:22:00;;;;;;;20.70;18.97;;;;;;;20.50;100.00;96822.16;5090136;28;20488;-73
2022/07/21 10:24:29;;;;;;;21.83;19.93;;;;;;;20.33;100.00;96817.47;5082827;28;21381;-73
2022/07/21 10:26:59;;;;;;;23.13;21.23;;;;;;;20.49;100.00;96834.03;5069456;28;20894;-72
2022/07/21 10:29:48;;;;;;;22.80;20.70;;;;;;;20.72;100.00;96833.75;5069782;28;20873;-73
2022/07/21 10:32:16;;;;;;;23.17;21.07;;;;;;;20.76;100.00;96842.59;5086512;28;20494;-73
2022/07/21 10:34:43;;;;;;;20.27;18.23;;;;;;;20.70;100.00;96841.44;5069655;28;20506;-73
2022/07/21 10:37:11;;;;;;;22.73;20.63;;;;;;;20.73;100.00;96837.97;5069770;28;20937;-72
2022/07/21 10:39:38;;;;;;;21.13;19.20;;;;;;;20.89;100.00;96843.78;5053234;28;20526;-73
2022/07/21 10:42:16;;;;;;;21.50;19.50;;;;;;;20.84;100.00;96838.00;5086587;28;20518;-73
2022/07/21 10:44:47;;;;;;;22.70;20.50;;;;;;;20.73;100.00;96839.91;5088262;28;20450;-73
2022/07/21 10:47:25;;;;;;;20.70;18.77;;;;;;;20.85;100.00;96848.38;5073510;28;20436;-73
2022/07/21 10:49:58;;;;;;;20.90;19.10;;;;;;;20.96;100.00;96843.00;5090361;28;20475;-73
2022/07/21 10:52:41;;;;;;;20.23;18.53;;;;;;;21.11;100.00;96841.13;5056867;28;20439;-72
2022/07/21 10:55:23;;;;;;;19.97;18.27;;;;;;;21.39;100.00;96849.25;5072308;28;20932;-73
2022/07/21 10:58:23;;;;;;;21.03;19.10;;;;;;;21.43;100.00;96795.44;5044884;28;20519;-72
2022/07/21 11:00:54;;;;;;;21.70;19.60;;;;;;;21.81;100.00;96853.09;5022806;28;20443;-73
2022/07/21 11:03:28;;;;;;;20.47;18.67;;;;;;;21.82;100.00;96823.09;5093767;28;20420;-74
2022/07/21 11:06:14;;;;;;;20.83;18.90;;;;;;;21.93;100.00;96855.38;5092333;28;20480;-73
2022/07/21 11:08:46;;;;;;;19.87;18.17;;;;;;;22.50;100.00;96841.00;5070718;28;20487;-73
2022/07/21 11:11:19;;;;;;;20.17;18.57;;;;;;;22.36;100.00;96850.69;5091411;28;20476;-73
2022/07/21 11:14:03;;;;;;;19.23;17.50;;;;;;;22.41;100.00;96857.59;5094862;28;20432;-73
2022/07/21 11:16:41;;;;;;;19.20;17.50;;;;;;;22.20;100.00;96849.59;5073393;28;20838;-73
2022/07/21 11:19:30;;;;;;;21.27;19.30;;;;;;;22.60;100.00;96843.66;5060132;28;20458;-73
2022/07/21 11:21:59;;;;;;;21.00;19.20;;;;;;;22.65;100.00;96829.75;5059971;28;20444;-73
2022/07/21 11:24:27;;;;;;;21.13;19.33;;;;;;;22.20;100.00;96809.94;5073051;28;20440;-73
2022/07/21 11:27:00;;;;;;;20.03;18.13;;;;;;;22.41;100.00;96834.09;5072812;28;20467;-73
2022/07/21 11:29:29;;;;;;;21.10;19.13;;;;;;;22.30;100.00;96849.56;5089735;28;20990;-73